createdAt,value
2023-03-06T00:00:56.603Z,99306.66
2023-03-06T00:03:27.972Z,99313.97
2023-03-06T00:05:58.999Z,99310.41
2023-03-06T00:08:29.641Z,99315.56
2023-03-06T00:10:58.358Z,99308.31
2023-03-06T00:13:30.140Z,99305.47
2023-03-06T00:16:00.919Z,99314.66
2023-03-06T00:18:32.102Z,99307.41
2023-03-06T00:21:01.557Z,99313.84
2023-03-06T00:23:29.649Z,99311.88
2023-03-06T00:25:57.624Z,99315.56
2023-03-06T00:28:25.583Z,99316.28
2023-03-06T00:30:53.567Z,99319.53
2023-03-06T00:33:21.556Z,99316.66
2023-03-06T00:35:49.558Z,99324.56
2023-03-06T00:38:18.983Z,99320.72
2023-03-06T00:40:47.018Z,99318.88
2023-03-06T00:43:15.283Z,99324.00
2023-03-06T00:45:43.453Z,99321.88
2023-03-06T00:48:11.626Z,99322.09
2023-03-06T00:50:39.823Z,99329.19
2023-03-06T00:53:07.935Z,99326.34
2023-03-06T00:55:37.285Z,99333.63
2023-03-06T00:58:05.258Z,99328.81
2023-03-06T01:00:33.250Z,99330.16
2023-03-06T01:03:01.285Z,99328.56
2023-03-06T01:05:29.461Z,99326.06
2023-03-06T01:07:57.687Z,99341.78
2023-03-06T01:10:25.654Z,99339.63
2023-03-06T01:12:55.157Z,99339.72
2023-03-06T01:15:23.471Z,99334.63
2023-03-06T01:17:55.162Z,99339.88
2023-03-06T01:20:23.504Z,99339.63
2023-03-06T01:22:51.496Z,99333.97
2023-03-06T01:25:19.704Z,99346.22
2023-03-06T01:27:47.719Z,99348.50
2023-03-06T01:30:17.281Z,99344.41
2023-03-06T01:32:45.411Z,99353.09
2023-03-06T01:35:13.752Z,99354.16
2023-03-06T01:37:41.985Z,99359.13
2023-03-06T01:40:11.727Z,99353.09
2023-03-06T01:42:39.764Z,99355.59
2023-03-06T01:45:29.946Z,99351.63
2023-03-06T01:47:59.272Z,99349.03
2023-03-06T01:50:27.288Z,99347.13
2023-03-06T01:52:59.302Z,99349.53
2023-03-06T01:55:32.122Z,99339.75
2023-03-06T01:58:04.667Z,99350.78
2023-03-06T02:00:32.848Z,99346.13
2023-03-06T02:03:08.680Z,99357.88
2023-03-06T02:05:36.989Z,99357.03
2023-03-06T02:08:06.918Z,99354.28
2023-03-06T02:10:35.485Z,99354.75
2023-03-06T02:13:04.048Z,99340.00
2023-03-06T02:15:32.345Z,99342.16
2023-03-06T02:18:03.118Z,99338.00
2023-03-06T02:20:38.176Z,99336.56
2023-03-06T02:23:12.316Z,99344.97
2023-03-06T02:25:44.745Z,99334.03
2023-03-06T02:28:14.768Z,99332.00
2023-03-06T02:30:44.440Z,99336.09
2023-03-06T02:33:14.291Z,99332.72
2023-03-06T02:35:49.373Z,99333.19
2023-03-06T02:38:20.104Z,99332.97
2023-03-06T02:40:52.180Z,99325.28
2023-03-06T02:43:24.526Z,99324.31
2023-03-06T02:45:53.482Z,99324.75
2023-03-06T02:48:22.000Z,99323.19
2023-03-06T02:50:50.805Z,99313.75
2023-03-06T02:53:21.450Z,99320.56
2023-03-06T02:55:51.297Z,99317.78
2023-03-06T02:58:20.626Z,99324.03
2023-03-06T03:00:49.958Z,99324.16
2023-03-06T03:03:18.802Z,99322.34
2023-03-06T03:05:46.808Z,99323.16
2023-03-06T03:08:14.889Z,99315.44
2023-03-06T03:10:43.089Z,99311.69
2023-03-06T03:13:13.326Z,99309.75
2023-03-06T03:15:41.303Z,99317.56
2023-03-06T03:18:10.335Z,99307.88
2023-03-06T03:20:38.445Z,99309.94
2023-03-06T03:23:06.373Z,99310.84
2023-03-06T03:25:34.510Z,99311.63
2023-03-06T03:28:02.521Z,99305.03
2023-03-06T03:30:32.118Z,99312.84
2023-03-06T03:33:00.092Z,99305.22
2023-03-06T03:35:28.182Z,99309.59
2023-03-06T03:37:56.128Z,99309.19
2023-03-06T03:40:24.206Z,99303.75
2023-03-06T03:42:52.168Z,99310.72
2023-03-06T03:45:20.364Z,99306.56
2023-03-06T03:47:52.537Z,99303.91
2023-03-06T03:50:20.874Z,99304.06
2023-03-06T03:52:49.094Z,99305.63
2023-03-06T03:55:17.099Z,99307.41
2023-03-06T03:57:47.912Z,99297.94
2023-03-06T04:00:17.103Z,99301.31
2023-03-06T04:02:45.764Z,99304.94
2023-03-06T04:05:16.668Z,99313.59
2023-03-06T04:07:45.050Z,99311.66
2023-03-06T04:10:14.424Z,99300.50
2023-03-06T04:12:42.453Z,99296.59
2023-03-06T04:15:11.134Z,99302.31
2023-03-06T04:17:39.346Z,99295.72
2023-03-06T04:20:08.382Z,99309.56
2023-03-06T04:22:37.806Z,99308.56
2023-03-06T04:25:06.751Z,99313.59
2023-03-06T04:27:34.839Z,99305.41
2023-03-06T04:30:03.021Z,99296.47
2023-03-06T04:32:30.977Z,99298.97
2023-03-06T04:34:59.205Z,99302.06
2023-03-06T04:37:27.750Z,99305.41
2023-03-06T04:39:58.195Z,99302.28
2023-03-06T04:42:26.272Z,99296.88
2023-03-06T04:44:54.322Z,99310.53
2023-03-06T04:47:22.334Z,99304.94
2023-03-06T04:49:50.554Z,99306.91
2023-03-06T04:52:18.503Z,99308.28
2023-03-06T04:54:46.581Z,99311.09
2023-03-06T04:57:16.213Z,99300.47
2023-03-06T04:59:44.285Z,99306.47
2023-03-06T05:02:12.513Z,99306.72
2023-03-06T05:04:40.570Z,99302.03
2023-03-06T05:07:08.649Z,99305.78
2023-03-06T05:09:39.065Z,99309.59
2023-03-06T05:12:07.599Z,99308.25
2023-03-06T05:14:37.264Z,99302.81
2023-03-06T05:17:05.344Z,99306.84
2023-03-06T05:19:33.304Z,99302.28
2023-03-06T05:22:01.239Z,99306.31
2023-03-06T05:24:29.425Z,99311.50
2023-03-06T05:26:57.477Z,99308.31
2023-03-06T05:29:25.627Z,99318.91
2023-03-06T05:31:55.021Z,99318.91
2023-03-06T05:34:23.010Z,99311.09
2023-03-06T05:36:51.074Z,99321.56
2023-03-06T05:39:19.062Z,99312.22
2023-03-06T05:41:47.053Z,99317.91
2023-03-06T05:44:15.289Z,99315.84
2023-03-06T05:46:43.298Z,99313.63
2023-03-06T05:49:12.847Z,99313.31
2023-03-06T05:51:40.874Z,99310.81
2023-03-06T05:54:09.000Z,99306.34
2023-03-06T05:56:36.918Z,99310.28
2023-03-06T05:59:05.010Z,99309.44
2023-03-06T06:01:32.967Z,99313.31
2023-03-06T06:04:00.987Z,99310.69
2023-03-06T06:06:30.311Z,99305.38
2023-03-06T06:08:58.228Z,99312.22
2023-03-06T06:11:26.269Z,99313.31
2023-03-06T06:13:54.200Z,99314.47
2023-03-06T06:16:22.212Z,99315.03
2023-03-06T06:18:50.187Z,99304.97
2023-03-06T06:21:18.207Z,99316.28
2023-03-06T06:23:47.687Z,99308.47
2023-03-06T06:26:15.900Z,99322.84
2023-03-06T06:28:43.979Z,99315.72
2023-03-06T06:31:13.406Z,99321.44
2023-03-06T06:33:42.145Z,99306.38
2023-03-06T06:36:17.187Z,99321.59
2023-03-06T06:38:47.144Z,99323.13
2023-03-06T06:44:08.499Z,99320.91
2023-03-06T06:47:20.842Z,99321.44
2023-03-06T06:49:27.878Z,99320.75
2023-03-06T06:51:55.996Z,99330.53
2023-03-06T06:54:25.514Z,99341.84
2023-03-06T06:56:53.616Z,99344.06
2023-03-06T06:59:23.618Z,99332.06
2023-03-06T07:01:54.011Z,99341.84
2023-03-06T07:04:22.176Z,99338.22
2023-03-06T07:06:50.217Z,99340.44
2023-03-06T07:09:18.138Z,99339.59
2023-03-06T07:11:47.415Z,99349.09
2023-03-06T07:14:15.448Z,99344.03
2023-03-06T07:16:43.567Z,99345.16
2023-03-06T07:19:11.496Z,99352.00
2023-03-06T07:21:39.491Z,99348.81
2023-03-06T07:24:08.117Z,99350.19
2023-03-06T07:26:36.300Z,99361.22
2023-03-06T07:29:06.285Z,99348.06
2023-03-06T07:31:34.287Z,99350.69
2023-03-06T07:34:04.816Z,99353.16
2023-03-06T07:36:34.651Z,99356.50
2023-03-06T07:39:02.722Z,99365.84
2023-03-06T07:41:30.710Z,99358.69
2023-03-06T07:43:58.777Z,99358.16
2023-03-06T07:46:28.381Z,99355.91
2023-03-06T07:48:56.489Z,99358.41
2023-03-06T07:51:24.455Z,99361.72
2023-03-06T07:53:52.400Z,99367.28
2023-03-06T07:56:20.656Z,99367.22
2023-03-06T07:58:49.001Z,99365.66
2023-03-06T08:01:19.783Z,99371.78
2023-03-06T08:03:50.219Z,99373.84
2023-03-06T08:06:20.384Z,99382.41
2023-03-06T08:08:49.967Z,99373.34
2023-03-06T08:11:20.267Z,99370.69
2023-03-06T08:13:49.353Z,99378.13
2023-03-06T08:16:18.446Z,99364.53
2023-03-06T08:18:46.758Z,99362.72
2023-03-06T08:21:17.737Z,99367.16
2023-03-06T08:23:46.803Z,99363.38
2023-03-06T08:26:17.626Z,99369.88
2023-03-06T08:28:46.200Z,99375.13
2023-03-06T08:31:27.318Z,99372.09
2023-03-06T08:33:56.745Z,99368.59
2023-03-06T08:36:26.185Z,99367.75
2023-03-06T08:38:54.507Z,99150.25
2023-03-06T08:41:22.673Z,99375.91
2023-03-06T08:43:51.311Z,99378.41
2023-03-06T08:46:20.829Z,99377.63
2023-03-06T08:48:49.256Z,99377.78
2023-03-06T08:51:19.015Z,99370.63
2023-03-06T08:53:48.853Z,99375.44
2023-03-06T08:56:18.240Z,99373.38
2023-03-06T08:58:46.365Z,99368.16
2023-03-06T09:01:15.740Z,99363.56
2023-03-06T09:03:44.021Z,99358.06
2023-03-06T09:06:12.545Z,99111.66
2023-03-06T09:08:43.107Z,99353.03
2023-03-06T09:11:13.337Z,99352.34
2023-03-06T09:13:42.319Z,99350.00
2023-03-06T09:16:12.158Z,99351.84
2023-03-06T09:18:40.669Z,99349.84
2023-03-06T09:21:10.673Z,99341.84
2023-03-06T09:23:40.089Z,99349.34
2023-03-06T09:26:08.730Z,99350.78
2023-03-06T09:28:40.845Z,99351.38
2023-03-06T09:31:10.902Z,99345.78
2023-03-06T09:33:39.442Z,99353.38
2023-03-06T09:36:09.552Z,99355.94
2023-03-06T10:17:18.870Z,99365.25
2023-03-06T10:19:47.776Z,99371.41
2023-03-06T10:22:26.190Z,99369.69
2023-03-06T10:25:00.639Z,99369.00
2023-03-06T10:27:39.375Z,99367.63
2023-03-06T10:30:25.990Z,99367.28
2023-03-06T10:32:58.857Z,99370.88
2023-03-06T10:35:31.088Z,99369.72
2023-03-06T10:38:03.729Z,99366.84
2023-03-06T10:40:39.677Z,99367.34
2023-03-06T10:43:12.398Z,99347.41
2023-03-06T10:45:51.521Z,99370.06
2023-03-06T10:48:23.420Z,99360.16
2023-03-06T10:50:55.473Z,99357.06
2023-03-06T10:53:26.192Z,99358.88
2023-03-06T10:55:57.146Z,99354.16
2023-03-06T10:58:27.895Z,99351.41
2023-03-06T11:01:06.997Z,99352.25
2023-03-06T11:03:39.517Z,99351.88
2023-03-06T11:06:13.088Z,99347.69
2023-03-06T11:08:43.382Z,99316.47
2023-03-06T11:11:14.485Z,99338.38
2023-03-06T11:13:45.069Z,99328.66
2023-03-06T11:16:28.521Z,99334.88
2023-03-06T11:18:59.845Z,99322.91
2023-03-06T11:21:31.698Z,99342.28
2023-03-06T11:24:05.552Z,99331.22
2023-03-06T11:26:42.697Z,99339.84
2023-03-06T11:29:29.390Z,99336.63
2023-03-06T11:32:05.401Z,99339.25
2023-03-06T11:34:42.805Z,99334.91
2023-03-06T11:37:19.102Z,99323.41
2023-03-06T11:39:54.819Z,99326.53
2023-03-06T11:42:28.038Z,99324.38
2023-03-06T11:45:09.951Z,99326.28
2023-03-06T11:47:42.338Z,99325.81
2023-03-06T11:50:24.021Z,99315.34
2023-03-06T11:52:56.221Z,99309.75
2023-03-06T11:55:36.845Z,99299.44
2023-03-06T11:58:23.473Z,99312.44
2023-03-06T12:00:57.173Z,99299.41
2023-03-06T12:03:57.820Z,99307.91
2023-03-06T12:06:37.950Z,99290.47
2023-03-06T12:09:22.068Z,99291.88
2023-03-06T12:12:01.435Z,99271.03
2023-03-06T12:33:24.237Z,99260.03
2023-03-06T12:36:01.491Z,99250.63
2023-03-06T12:38:50.066Z,99251.81
2023-03-06T12:41:26.786Z,99254.41
2023-03-06T12:44:21.253Z,99245.72
2023-03-06T12:46:54.694Z,99242.00
2023-03-06T12:49:32.523Z,99238.69
2023-03-06T12:52:03.316Z,99225.22
2023-03-06T12:54:34.652Z,99224.75
2023-03-06T12:57:02.751Z,99217.13
2023-03-06T12:59:44.396Z,99212.09
2023-03-06T13:03:06.092Z,99212.69
2023-03-06T13:06:04.905Z,99203.16
2023-03-06T13:09:06.233Z,99200.88
2023-03-06T13:12:11.068Z,99193.59
2023-03-06T13:14:57.562Z,99179.53
2023-03-06T13:17:37.179Z,99187.78
2023-03-06T13:20:41.746Z,99182.41
2023-03-06T13:23:47.524Z,99174.75
2023-03-06T13:26:48.688Z,99171.56
2023-03-06T13:29:53.643Z,99168.63
2023-03-06T13:32:31.846Z,99162.63
2023-03-06T13:34:59.952Z,99165.22
2023-03-06T13:37:39.402Z,99171.56
2023-03-06T13:40:40.746Z,99149.16
2023-03-06T13:43:25.189Z,99162.53
2023-03-06T13:45:54.673Z,99145.84
2023-03-06T13:48:43.756Z,99139.25
2023-03-06T13:51:24.725Z,99146.31
2023-03-06T13:54:24.309Z,99146.72
2023-03-06T13:57:17.747Z,99144.19
2023-03-06T14:00:18.995Z,99130.56
2023-03-06T14:03:25.245Z,99147.13
2023-03-06T14:05:53.947Z,99141.75
2023-03-06T14:08:24.196Z,99141.94
2023-03-06T14:11:01.905Z,99141.47
2023-03-06T14:13:45.230Z,99142.81
2023-03-06T14:16:22.178Z,99129.56
2023-03-06T14:18:53.552Z,99139.63
2023-03-06T14:21:30.523Z,99141.19
2023-03-06T14:24:01.301Z,99127.66
2023-03-06T14:26:33.786Z,99129.84
2023-03-06T14:29:03.099Z,99128.84
2023-03-06T14:31:33.935Z,99129.66
2023-03-06T14:34:05.274Z,99111.53
2023-03-06T14:36:36.997Z,99115.97
2023-03-06T14:39:09.900Z,99112.13
2023-03-06T14:41:39.254Z,99118.22
2023-03-06T14:44:16.664Z,99106.53
2023-03-06T14:46:45.376Z,99109.91
2023-03-06T14:49:16.422Z,99107.47
2023-03-06T14:51:47.783Z,99107.69
2023-03-06T14:54:19.677Z,99102.22
2023-03-06T14:56:51.609Z,99106.53
2023-03-06T14:59:22.194Z,99110.16
2023-03-06T15:01:52.698Z,99106.34
2023-03-06T15:04:27.016Z,99103.78
2023-03-06T15:06:56.848Z,99104.03
2023-03-06T15:09:29.532Z,99105.97
2023-03-06T15:11:59.874Z,99100.72
2023-03-06T15:14:32.531Z,99100.44
2023-03-06T15:17:21.888Z,99097.88
2023-03-06T15:19:54.408Z,99101.56
2023-03-06T15:22:28.289Z,99102.75
2023-03-06T15:25:16.753Z,99085.66
2023-03-06T15:27:49.834Z,99083.59
2023-03-06T15:30:27.399Z,99084.16
2023-03-06T15:33:11.687Z,99085.50
2023-03-06T15:35:41.447Z,99088.97
2023-03-06T15:38:25.397Z,99097.84
2023-03-06T15:54:25.470Z,99087.31
2023-03-06T15:56:54.314Z,99090.91
2023-03-06T15:59:25.841Z,99087.31
2023-03-06T16:01:55.191Z,99091.28
2023-03-06T16:04:23.901Z,99082.41
2023-03-06T16:06:52.533Z,99079.66
2023-03-06T16:09:20.569Z,99086.34
2023-03-06T16:11:50.084Z,99082.94
2023-03-06T16:14:21.526Z,99084.50
2023-03-06T16:16:50.223Z,99077.44
2023-03-06T16:19:27.149Z,99079.16
2023-03-06T16:21:55.828Z,99072.19
2023-03-06T16:24:26.177Z,99079.75
2023-03-06T16:26:56.371Z,99082.19
2023-03-06T16:29:29.162Z,99078.56
2023-03-06T16:32:01.909Z,99076.25
2023-03-06T16:34:30.122Z,99074.47
2023-03-06T16:36:58.068Z,99085.56
2023-03-06T16:39:26.268Z,99080.84
2023-03-06T16:41:56.633Z,99076.94
2023-03-06T16:44:24.705Z,99081.53
2023-03-06T16:46:52.754Z,99079.56
2023-03-06T16:49:22.688Z,99073.78
2023-03-06T16:51:51.082Z,99077.38
2023-03-06T16:54:28.220Z,99078.19
2023-03-06T16:56:57.616Z,99077.59
2023-03-06T16:59:26.022Z,99081.75
2023-03-06T17:01:54.148Z,99082.66
2023-03-06T17:04:22.111Z,99077.78
2023-03-06T17:06:50.022Z,99079.97
2023-03-06T17:09:19.633Z,99079.38
2023-03-06T17:11:48.486Z,99091.56
2023-03-06T17:14:18.996Z,99090.63
2023-03-06T17:16:47.855Z,99079.28
2023-03-06T17:19:16.314Z,99090.88
2023-03-06T17:21:45.102Z,99100.59
2023-03-06T17:24:15.371Z,99092.94
2023-03-06T17:26:44.429Z,99093.69
2023-03-06T17:29:12.785Z,99100.28
2023-03-06T17:31:43.030Z,99095.44
2023-03-06T17:34:13.679Z,99094.16
2023-03-06T17:36:41.637Z,99106.44
2023-03-06T17:39:10.333Z,99100.94
2023-03-06T17:41:38.358Z,99109.31
2023-03-06T17:44:06.697Z,99103.16
2023-03-06T17:46:35.006Z,99100.00
2023-03-06T17:49:04.457Z,99101.84
2023-03-06T17:51:32.395Z,99096.34
2023-03-06T17:54:00.391Z,99100.84
2023-03-06T17:56:30.911Z,99104.22
2023-03-06T17:58:59.710Z,99105.28
2023-03-06T18:01:29.986Z,99098.44
2023-03-06T18:03:58.524Z,99102.63
2023-03-06T18:06:30.190Z,99098.31
2023-03-06T18:08:58.480Z,99098.66
2023-03-06T18:11:26.552Z,99102.00
2023-03-06T18:13:54.843Z,99097.88
2023-03-06T18:16:24.700Z,99097.38
2023-03-06T18:18:53.673Z,99094.72
2023-03-06T18:21:24.670Z,99095.38
2023-03-06T18:23:54.675Z,99096.38
2023-03-06T18:26:24.788Z,99093.38
2023-03-06T18:28:54.915Z,99096.38
2023-03-06T18:31:25.567Z,99087.72
2023-03-06T18:33:55.085Z,99092.03
2023-03-06T18:36:24.755Z,99103.88
2023-03-06T18:38:54.660Z,99098.00
2023-03-06T18:41:23.619Z,99097.31
2023-03-06T18:43:53.227Z,99089.00
2023-03-06T18:46:21.278Z,99088.16
2023-03-06T18:48:49.273Z,99097.81
2023-03-06T18:51:19.348Z,99093.13
2023-03-06T18:53:48.785Z,99100.94
2023-03-06T18:56:20.140Z,99098.56
2023-03-06T18:58:48.794Z,99099.19
2023-03-06T19:01:16.915Z,99102.53
2023-03-06T19:03:45.046Z,99104.31
2023-03-06T19:06:16.520Z,99093.38
2023-03-06T19:08:44.855Z,99101.34
2023-03-06T19:11:14.537Z,99094.22
2023-03-06T19:13:44.698Z,99099.38
2023-03-06T19:16:18.737Z,99103.88
2023-03-06T19:18:46.705Z,99100.69
2023-03-06T19:21:16.471Z,99092.50
2023-03-06T19:23:44.841Z,99094.63
2023-03-06T19:26:12.822Z,99090.91
2023-03-06T19:28:43.722Z,99094.53
2023-03-06T19:31:13.776Z,99095.38
2023-03-06T19:33:43.510Z,99099.03
2023-03-06T19:36:12.795Z,99106.78
2023-03-06T19:38:41.355Z,99100.06
2023-03-06T19:41:13.594Z,99101.00
2023-03-06T19:43:44.451Z,99096.69
2023-03-06T19:46:13.796Z,99095.56
2023-03-06T19:48:42.224Z,99095.47
2023-03-06T19:51:11.065Z,99095.25
2023-03-06T19:53:39.885Z,99096.94
2023-03-06T19:56:09.668Z,99096.63
2023-03-06T19:58:37.747Z,99094.19
2023-03-06T20:01:09.509Z,99090.75
2023-03-06T20:03:37.955Z,99099.53
2023-03-06T20:06:09.152Z,99088.91
2023-03-06T20:08:37.234Z,99092.56
2023-03-06T20:11:05.591Z,99094.22
2023-03-06T20:13:33.837Z,99097.94
2023-03-06T20:16:06.620Z,99096.19
2023-03-06T20:18:35.957Z,99092.94
2023-03-06T20:21:05.655Z,99102.81
2023-03-06T20:23:34.633Z,99101.97
2023-03-06T20:26:04.249Z,99107.66
2023-03-06T20:28:32.312Z,99097.25
2023-03-06T20:31:00.572Z,99106.34
2023-03-06T20:33:28.560Z,99107.41
2023-03-06T20:35:57.977Z,99110.44
2023-03-06T20:38:26.185Z,99103.69
2023-03-06T20:40:55.987Z,99109.38
2023-03-06T20:43:23.937Z,99107.28
2023-03-06T20:45:59.570Z,99103.59
2023-03-06T20:48:27.633Z,99098.47
2023-03-06T20:51:05.789Z,99094.81
2023-03-06T20:53:35.212Z,99101.97
2023-03-06T20:56:03.331Z,99091.25
2023-03-06T20:58:32.629Z,99098.13
2023-03-06T21:01:02.418Z,99096.63
2023-03-06T21:03:30.596Z,99102.50
2023-03-06T21:05:58.759Z,99095.78
2023-03-06T21:08:28.107Z,99100.34
2023-03-06T21:10:56.020Z,99089.88
2023-03-06T21:13:24.159Z,99090.19
2023-03-06T21:15:52.153Z,99086.06
2023-03-06T21:18:20.211Z,99091.34
2023-03-06T21:20:48.262Z,99093.22
2023-03-06T21:23:16.232Z,99088.91
2023-03-06T21:25:49.846Z,99083.88
2023-03-06T21:28:18.752Z,99092.81
2023-03-06T21:30:47.331Z,99091.78
2023-03-06T21:33:16.185Z,99080.75
2023-03-06T21:35:46.018Z,99082.56
2023-03-06T21:38:14.828Z,99082.31
2023-03-06T21:40:44.694Z,99067.00
2023-03-06T21:43:15.850Z,99072.00
2023-03-06T21:45:44.930Z,99067.97
2023-03-06T21:48:13.360Z,99069.34
2023-03-06T21:50:41.425Z,99073.84
2023-03-06T21:53:10.313Z,99068.88
2023-03-06T21:55:40.534Z,99071.81
2023-03-06T21:58:09.551Z,99071.34
2023-03-06T22:00:40.686Z,99058.69
2023-03-06T22:03:08.669Z,99068.63
2023-03-06T22:05:36.624Z,99065.28
2023-03-06T22:08:04.555Z,99053.00
2023-03-06T22:10:32.685Z,99053.16
2023-03-06T22:13:00.616Z,99043.25
2023-03-06T22:15:28.602Z,99040.31
2023-03-06T22:17:58.206Z,99049.09
2023-03-06T22:20:26.153Z,99048.19
2023-03-06T22:22:54.101Z,99041.22
2023-03-06T22:25:22.176Z,99039.09
2023-03-06T22:27:50.096Z,99036.75
2023-03-06T22:30:18.978Z,99022.81
2023-03-06T22:32:46.969Z,99020.53
2023-03-06T22:35:16.499Z,99027.50
2023-03-06T22:37:44.493Z,99017.47
2023-03-06T22:40:13.444Z,99015.69
2023-03-06T22:42:41.526Z,99012.38
2023-03-06T22:45:10.689Z,99015.84
2023-03-06T22:47:38.863Z,99013.03
2023-03-06T22:50:07.580Z,98999.63
2023-03-06T22:52:36.969Z,98995.69
2023-03-06T22:55:05.665Z,98994.34
2023-03-06T22:57:33.649Z,98996.19
2023-03-06T23:00:01.723Z,98999.31
2023-03-06T23:02:34.880Z,98994.31
2023-03-06T23:05:02.939Z,98992.66
2023-03-06T23:07:30.937Z,98991.50
2023-03-06T23:10:00.611Z,98982.03
2023-03-06T23:12:28.624Z,98985.53
2023-03-06T23:14:56.590Z,98991.19
2023-03-06T23:17:24.982Z,98994.03
2023-03-06T23:19:53.185Z,98995.53
2023-03-06T23:22:21.158Z,98986.91
2023-03-06T23:24:49.500Z,98979.91
2023-03-06T23:27:19.638Z,98986.59
2023-03-06T23:29:50.566Z,98978.50
2023-03-06T23:32:18.586Z,98968.66
2023-03-06T23:34:49.017Z,98964.44
2023-03-06T23:37:19.860Z,98953.28
2023-03-06T23:39:48.039Z,98960.13
2023-03-06T23:42:16.061Z,98957.09
2023-03-06T23:44:45.391Z,98951.78
2023-03-06T23:47:13.746Z,98922.75
2023-03-06T23:49:41.724Z,98932.31
2023-03-06T23:52:09.727Z,98931.53
2023-03-06T23:54:37.724Z,98931.69
2023-03-06T23:57:05.656Z,98927.34
2023-03-06T23:59:33.627Z,98917.28
